createdAt,value
2018-08-06T00:00:53.643Z,25.34
2018-08-06T00:02:31.192Z,25.45
2018-08-06T00:04:09.484Z,25.55
2018-08-06T00:05:46.581Z,25.67
2018-08-06T00:07:24.561Z,25.45
2018-08-06T00:09:01.218Z,25.26
2018-08-06T00:10:38.879Z,25.26
2018-08-06T00:12:16.713Z,25.35
2018-08-06T00:13:54.534Z,25.47
2018-08-06T00:15:32.168Z,25.37
2018-08-06T00:17:09.783Z,25.42
2018-08-06T00:18:46.154Z,25.41
2018-08-06T00:20:23.150Z,25.03
2018-08-06T00:22:00.354Z,24.88
2018-08-06T00:23:37.123Z,24.62
2018-08-06T00:25:14.777Z,24.40
2018-08-06T00:26:51.365Z,24.34
2018-08-06T00:28:27.754Z,24.31
2018-08-06T00:30:07.221Z,24.34
2018-08-06T00:31:43.996Z,24.40
2018-08-06T00:33:20.234Z,24.47
2018-08-06T00:34:56.536Z,24.72
2018-08-06T00:36:36.852Z,24.94
2018-08-06T00:38:16.771Z,25.14
2018-08-06T00:39:53.226Z,25.10
2018-08-06T00:41:29.692Z,25.12
2018-08-06T00:43:06.696Z,25.01
2018-08-06T00:44:47.821Z,25.02
2018-08-06T00:46:24.478Z,24.75
2018-08-06T00:48:00.840Z,24.67
2018-08-06T00:49:38.494Z,24.89
2018-08-06T00:51:14.901Z,24.82
2018-08-06T00:52:51.937Z,24.53
2018-08-06T00:54:28.677Z,24.59
2018-08-06T00:56:07.197Z,24.59
2018-08-06T00:57:44.198Z,24.46
2018-08-06T00:59:20.583Z,24.35
2018-08-06T01:00:57.511Z,24.47
2018-08-06T01:02:35.311Z,24.54
2018-08-06T01:04:11.659Z,24.57
2018-08-06T01:05:47.910Z,24.57
2018-08-06T01:07:24.304Z,24.66
2018-08-06T01:09:02.025Z,24.60
2018-08-06T01:10:38.420Z,24.35
2018-08-06T01:12:16.366Z,24.29
2018-08-06T01:13:52.725Z,24.35
2018-08-06T01:15:29.713Z,24.47
2018-08-06T01:17:06.203Z,24.60
2018-08-06T01:18:42.624Z,24.53
2018-08-06T01:20:18.961Z,24.55
2018-08-06T01:21:55.260Z,24.70
2018-08-06T01:23:31.678Z,24.87
2018-08-06T01:25:08.066Z,24.72
2018-08-06T01:26:44.416Z,24.39
2018-08-06T01:28:21.429Z,24.11
2018-08-06T01:29:57.755Z,24.14
2018-08-06T01:31:34.090Z,24.30
2018-08-06T01:33:11.303Z,24.28
2018-08-06T01:34:48.259Z,24.43
2018-08-06T01:36:24.847Z,24.60
2018-08-06T01:38:01.214Z,24.62
2018-08-06T01:39:37.592Z,24.80
2018-08-06T01:41:15.305Z,24.77
2018-08-06T01:42:51.652Z,24.58
2018-08-06T01:44:27.950Z,24.24
2018-08-06T01:46:04.813Z,24.03
2018-08-06T01:47:41.477Z,23.83
2018-08-06T01:49:17.805Z,23.74
2018-08-06T01:50:54.274Z,23.75
2018-08-06T01:52:30.597Z,23.81
2018-08-06T01:54:07.435Z,23.93
2018-08-06T01:55:43.745Z,24.08
2018-08-06T01:57:19.985Z,24.06
2018-08-06T01:58:56.367Z,24.16
2018-08-06T02:00:33.727Z,24.19
2018-08-06T02:02:10.838Z,24.12
2018-08-06T02:03:47.171Z,24.12
2018-08-06T02:05:23.601Z,23.99
2018-08-06T02:07:00.365Z,23.94
2018-08-06T02:08:36.742Z,23.97
2018-08-06T02:10:15.651Z,23.97
2018-08-06T02:11:52.037Z,23.91
2018-08-06T02:13:30.106Z,23.82
2018-08-06T02:15:09.375Z,23.81
2018-08-06T02:16:45.592Z,23.97
2018-08-06T02:18:22.816Z,24.01
2018-08-06T02:19:59.590Z,23.95
2018-08-06T02:21:36.644Z,23.75
2018-08-06T02:23:13.062Z,23.49
2018-08-06T02:24:49.789Z,23.41
2018-08-06T02:26:26.826Z,23.28
2018-08-06T02:28:03.388Z,23.38
2018-08-06T02:29:41.633Z,23.72
2018-08-06T02:31:18.292Z,23.77
2018-08-06T02:32:55.120Z,24.00
2018-08-06T02:34:31.538Z,24.05
2018-08-06T02:36:08.046Z,24.15
2018-08-06T02:37:44.799Z,24.15
2018-08-06T02:39:21.653Z,24.17
2018-08-06T02:40:58.019Z,24.29
2018-08-06T02:42:34.303Z,24.39
2018-08-06T02:44:11.333Z,24.23
2018-08-06T02:45:48.728Z,24.12
2018-08-06T02:47:25.144Z,23.90
2018-08-06T02:49:01.863Z,23.65
2018-08-06T02:50:38.919Z,23.54
2018-08-06T02:52:15.656Z,23.20
2018-08-06T02:53:52.179Z,23.02
2018-08-06T02:55:28.545Z,22.97
2018-08-06T02:57:07.280Z,22.95
2018-08-06T02:58:44.086Z,23.04
2018-08-06T03:00:20.549Z,23.31
2018-08-06T03:01:56.925Z,23.39
2018-08-06T03:03:33.365Z,23.31
2018-08-06T03:05:13.079Z,23.23
2018-08-06T03:06:49.934Z,23.37
2018-08-06T03:08:27.505Z,23.36
2018-08-06T03:10:04.567Z,23.29
2018-08-06T03:11:41.644Z,23.16
2018-08-06T03:13:18.017Z,23.08
2018-08-06T03:14:54.366Z,23.14
2018-08-06T03:16:30.871Z,23.15
2018-08-06T03:18:07.440Z,23.10
2018-08-06T03:19:43.666Z,23.09
2018-08-06T03:21:19.939Z,23.05
2018-08-06T03:22:56.267Z,23.16
2018-08-06T03:24:33.201Z,23.29
2018-08-06T03:26:09.629Z,23.10
2018-08-06T03:27:46.381Z,22.93
2018-08-06T03:29:22.936Z,22.59
2018-08-06T03:30:59.954Z,22.43
2018-08-06T03:32:37.168Z,22.31
2018-08-06T03:34:13.663Z,22.35
2018-08-06T03:35:50.168Z,22.26
2018-08-06T03:37:29.795Z,22.31
2018-08-06T03:39:09.456Z,22.22
2018-08-06T03:40:45.813Z,22.26
2018-08-06T03:42:22.177Z,22.24
2018-08-06T03:45:35.107Z,22.25
2018-08-06T03:47:12.197Z,22.03
2018-08-06T03:48:48.506Z,21.93
2018-08-06T03:50:25.337Z,21.94
2018-08-06T03:52:01.660Z,21.97
2018-08-06T03:53:38.394Z,22.04
2018-08-06T03:55:14.805Z,22.18
2018-08-06T03:56:51.562Z,22.21
2018-08-06T03:58:27.916Z,22.19
2018-08-06T04:00:06.403Z,22.27
2018-08-06T04:01:42.985Z,22.07
2018-08-06T04:03:19.723Z,21.93
2018-08-06T04:04:55.949Z,21.99
2018-08-06T04:06:32.295Z,22.00
2018-08-06T04:08:08.675Z,22.09
2018-08-06T04:09:45.849Z,22.17
2018-08-06T04:11:22.906Z,22.34
2018-08-06T04:12:59.321Z,22.15
2018-08-06T04:14:35.487Z,22.10
2018-08-06T04:16:12.508Z,22.20
2018-08-06T04:17:48.800Z,22.46
2018-08-06T04:19:25.022Z,22.84
2018-08-06T04:21:01.351Z,23.22
2018-08-06T04:22:38.166Z,23.19
2018-08-06T04:24:14.337Z,23.35
2018-08-06T04:25:50.773Z,23.43
2018-08-06T04:27:27.156Z,23.72
2018-08-06T04:29:04.233Z,23.97
2018-08-06T04:30:40.192Z,24.26
2018-08-06T04:32:16.636Z,24.24
2018-08-06T04:33:52.915Z,24.19
2018-08-06T04:35:29.673Z,24.24
2018-08-06T04:37:06.173Z,24.70
2018-08-06T04:38:43.756Z,25.02
2018-08-06T04:40:20.050Z,25.13
2018-08-06T04:41:56.659Z,25.35
2018-08-06T04:43:32.895Z,25.33
2018-08-06T04:45:10.808Z,24.96
2018-08-06T04:46:48.279Z,25.11
2018-08-06T04:48:25.110Z,25.22
2018-08-06T04:50:01.323Z,25.15
2018-08-06T04:51:38.207Z,24.91
2018-08-06T04:53:14.545Z,24.49
2018-08-06T04:54:54.664Z,24.22
2018-08-06T04:56:30.985Z,24.10
2018-08-06T04:58:13.264Z,24.18
2018-08-06T04:59:51.579Z,24.19
2018-08-06T05:01:58.495Z,24.06
2018-08-06T05:03:35.920Z,24.12
2018-08-06T05:05:17.609Z,23.94
2018-08-06T05:06:54.392Z,23.82
2018-08-06T05:08:32.107Z,23.84
2018-08-06T05:10:12.530Z,24.20
2018-08-06T05:11:49.655Z,24.27
2018-08-06T05:13:26.192Z,24.40
2018-08-06T05:15:05.138Z,24.66
2018-08-06T05:16:42.495Z,24.84
2018-08-06T05:18:24.725Z,24.95
2018-08-06T05:20:02.272Z,25.13
2018-08-06T05:21:38.529Z,25.39
2018-08-06T05:23:15.476Z,25.43
2018-08-06T05:24:51.587Z,25.38
2018-08-06T05:26:29.465Z,25.42
2018-08-06T05:28:07.381Z,25.82
2018-08-06T05:29:44.405Z,25.79
2018-08-06T05:31:21.874Z,25.75
2018-08-06T05:32:58.476Z,25.60
2018-08-06T05:35:43.621Z,25.76
2018-08-06T05:37:34.985Z,26.08
2018-08-06T05:39:13.623Z,26.15
2018-08-06T05:40:50.575Z,25.82
2018-08-06T05:42:29.855Z,25.78
2018-08-06T05:44:09.120Z,26.00
2018-08-06T05:45:46.035Z,26.18
2018-08-06T05:47:26.202Z,26.16
2018-08-06T05:49:04.293Z,26.03
2018-08-06T05:50:41.530Z,25.97
2018-08-06T05:52:18.400Z,26.24
2018-08-06T05:53:54.858Z,26.32
2018-08-06T05:55:33.403Z,26.43
2018-08-06T05:57:09.989Z,26.48
2018-08-06T05:58:46.968Z,26.83
2018-08-06T06:00:23.557Z,26.67
2018-08-06T06:02:00.227Z,26.57
2018-08-06T06:03:36.898Z,26.44
2018-08-06T06:05:13.932Z,26.12
2018-08-06T06:06:50.642Z,26.32
2018-08-06T06:08:28.132Z,26.54
2018-08-06T06:10:04.718Z,26.54
2018-08-06T06:11:41.680Z,26.87
2018-08-06T06:13:18.160Z,26.66
2018-08-06T06:14:59.446Z,26.65
2018-08-06T06:16:39.676Z,26.83
2018-08-06T06:18:17.663Z,26.86
2018-08-06T06:19:55.368Z,27.21
2018-08-06T06:21:31.843Z,27.27
2018-08-06T06:24:50.528Z,27.00
2018-08-06T06:26:26.879Z,26.88
2018-08-06T06:28:04.529Z,26.95
2018-08-06T06:29:44.452Z,26.71
2018-08-06T06:31:26.358Z,26.78
2018-08-06T06:33:04.444Z,26.81
2018-08-06T06:34:43.451Z,26.38
2018-08-06T06:36:20.834Z,26.16
2018-08-06T06:37:57.855Z,26.04
2018-08-06T06:39:35.631Z,26.08
2018-08-06T06:41:18.092Z,25.92
2018-08-06T06:42:54.886Z,26.04
2018-08-06T06:44:31.359Z,25.88
2018-08-06T06:46:07.906Z,25.71
2018-08-06T06:47:44.687Z,25.72
2018-08-06T06:49:22.635Z,25.59
2018-08-06T06:51:01.529Z,25.53
2018-08-06T06:52:38.183Z,25.45
2018-08-06T06:54:16.732Z,25.44
2018-08-06T06:55:54.140Z,25.53
2018-08-06T06:57:30.790Z,25.90
2018-08-06T06:59:07.683Z,26.24
2018-08-06T07:00:44.303Z,26.91
2018-08-06T07:02:20.931Z,26.94
2018-08-06T07:03:58.398Z,26.64
2018-08-06T07:05:34.874Z,26.56
2018-08-06T07:07:12.516Z,26.62
2018-08-06T07:08:48.653Z,26.73
2018-08-06T07:10:24.895Z,26.50
2018-08-06T07:12:02.365Z,26.39
2018-08-06T07:13:40.238Z,26.53
2018-08-06T07:16:12.252Z,26.45
2018-08-06T07:17:52.129Z,26.55
2018-08-06T07:19:31.694Z,26.60
2018-08-06T07:21:10.338Z,26.94
2018-08-06T07:22:47.510Z,27.23
2018-08-06T07:24:26.135Z,27.64
2018-08-06T07:26:02.737Z,27.79
2018-08-06T07:27:43.242Z,27.79
2018-08-06T07:29:23.433Z,27.71
2018-08-06T07:31:00.740Z,27.50
2018-08-06T07:32:38.239Z,27.50
2018-08-06T07:34:15.724Z,27.71
2018-08-06T07:35:52.829Z,27.61
2018-08-06T07:37:29.996Z,27.40
2018-08-06T07:39:10.937Z,27.77
2018-08-06T07:40:48.882Z,28.75
2018-08-06T07:42:25.213Z,28.97
2018-08-06T07:44:01.694Z,28.40
2018-08-06T07:45:39.254Z,28.19
2018-08-06T07:47:16.594Z,28.48
2018-08-06T07:48:54.022Z,28.86
2018-08-06T07:50:36.009Z,29.34
2018-08-06T07:52:13.889Z,29.72
2018-08-06T07:53:50.445Z,30.40
2018-08-06T07:55:27.705Z,30.55
2018-08-06T07:57:05.166Z,30.39
2018-08-06T07:58:55.975Z,29.96
2018-08-06T08:00:38.507Z,29.37
2018-08-06T08:02:14.942Z,29.21
2018-08-06T08:03:53.060Z,28.50
2018-08-06T08:05:37.652Z,28.34
2018-08-06T08:07:14.165Z,28.10
2018-08-06T08:08:52.109Z,27.90
2018-08-06T08:10:28.874Z,27.94
2018-08-06T08:12:06.810Z,28.06
2018-08-06T08:13:43.151Z,28.05
2018-08-06T08:15:26.901Z,27.76
2018-08-06T08:17:03.742Z,27.68
2018-08-06T08:18:40.229Z,27.65
2018-08-06T08:20:17.989Z,28.19
2018-08-06T08:21:54.344Z,28.46
2018-08-06T08:23:39.493Z,28.56
2018-08-06T08:25:20.789Z,28.67
2018-08-06T08:26:57.235Z,29.34
2018-08-06T08:28:33.743Z,30.14
2018-08-06T08:30:15.488Z,30.51
2018-08-06T08:31:55.478Z,30.32
2018-08-06T08:33:33.238Z,29.88
2018-08-06T08:35:18.523Z,29.58
2018-08-06T08:37:15.407Z,29.57
2018-08-06T08:38:52.574Z,29.77
2018-08-06T08:40:30.969Z,29.60
2018-08-06T08:42:09.498Z,29.30
2018-08-06T08:43:45.825Z,29.33
2018-08-06T08:45:22.797Z,29.42
2018-08-06T08:47:00.056Z,29.62
2018-08-06T08:48:37.862Z,29.69
2018-08-06T08:50:19.627Z,29.62
2018-08-06T08:51:56.954Z,29.65
2018-08-06T08:53:34.481Z,30.07
2018-08-06T08:55:12.308Z,30.63
2018-08-06T08:56:48.773Z,31.05
2018-08-06T08:58:25.529Z,31.18
2018-08-06T09:00:16.339Z,31.65
2018-08-06T09:01:55.966Z,31.49
2018-08-06T09:03:32.617Z,30.70
2018-08-06T09:05:12.541Z,30.40
2018-08-06T09:06:49.366Z,30.28
2018-08-06T09:08:25.566Z,30.35
2018-08-06T09:10:03.675Z,30.31
2018-08-06T09:11:42.850Z,30.63
2018-08-06T09:13:21.261Z,30.85
2018-08-06T09:14:59.868Z,30.58
2018-08-06T09:16:52.345Z,30.62
2018-08-06T09:18:29.461Z,31.56
2018-08-06T09:20:06.454Z,32.24
2018-08-06T09:21:44.963Z,32.50
2018-08-06T09:23:23.936Z,32.46
2018-08-06T09:25:01.097Z,32.55
2018-08-06T09:26:37.358Z,32.97
2018-08-06T09:28:16.008Z,33.17
2018-08-06T09:29:52.317Z,33.36
2018-08-06T09:31:30.517Z,33.65
2018-08-06T09:33:07.250Z,32.99
2018-08-06T09:34:44.654Z,32.83
2018-08-06T09:36:21.830Z,32.92
2018-08-06T09:38:04.322Z,32.91
2018-08-06T09:39:41.938Z,32.28
2018-08-06T09:41:19.604Z,31.59
2018-08-06T09:42:58.750Z,31.70
2018-08-06T09:44:36.774Z,32.20
2018-08-06T09:46:14.204Z,32.78
2018-08-06T09:47:52.185Z,33.15
2018-08-06T09:49:29.414Z,33.33
2018-08-06T09:51:08.286Z,33.42
2018-08-06T09:52:51.711Z,33.25
2018-08-06T09:54:28.672Z,32.92
2018-08-06T09:56:06.451Z,32.40
2018-08-06T09:57:44.419Z,32.36
2018-08-06T09:59:21.321Z,32.85
2018-08-06T10:02:03.581Z,33.11
2018-08-06T10:03:41.975Z,33.45
2018-08-06T10:05:34.167Z,33.52
2018-08-06T10:07:12.933Z,33.59
2018-08-06T10:08:53.448Z,33.65
2018-08-06T10:10:30.302Z,33.75
2018-08-06T10:12:10.167Z,33.54
2018-08-06T10:13:47.666Z,33.28
2018-08-06T10:15:24.774Z,33.27
2018-08-06T10:17:02.755Z,33.71
2018-08-06T10:18:42.591Z,33.98
2018-08-06T10:20:20.543Z,34.09
2018-08-06T10:21:57.125Z,33.85
2018-08-06T10:23:37.088Z,33.04
2018-08-06T10:25:16.276Z,32.58
2018-08-06T10:26:53.174Z,32.61
2018-08-06T10:28:29.849Z,32.80
2018-08-06T10:30:16.636Z,32.77
2018-08-06T10:31:57.862Z,32.99
2018-08-06T10:33:36.607Z,33.25
2018-08-06T10:35:17.063Z,33.62
2018-08-06T10:36:58.232Z,33.86
2018-08-06T10:38:35.338Z,33.91
2018-08-06T10:40:16.047Z,33.50
2018-08-06T10:41:53.779Z,32.85
2018-08-06T10:43:30.578Z,32.52
2018-08-06T10:45:14.318Z,31.94
2018-08-06T10:46:50.785Z,31.72
2018-08-06T10:48:31.805Z,31.69
2018-08-06T10:50:08.721Z,32.03
2018-08-06T10:51:46.317Z,32.76
2018-08-06T10:53:23.541Z,33.09
2018-08-06T10:55:02.518Z,33.08
2018-08-06T10:56:40.450Z,32.90
2018-08-06T10:58:18.043Z,32.83
2018-08-06T10:59:56.291Z,32.46
2018-08-06T11:01:35.885Z,31.99
2018-08-06T11:03:13.458Z,31.95
2018-08-06T11:04:51.194Z,32.29
2018-08-06T11:06:30.584Z,32.95
2018-08-06T11:08:08.696Z,33.46
2018-08-06T11:09:45.700Z,33.77
2018-08-06T11:11:25.939Z,33.98
2018-08-06T11:13:04.152Z,33.88
2018-08-06T11:14:43.908Z,33.83
2018-08-06T11:16:21.890Z,33.55
2018-08-06T11:18:00.318Z,33.68
2018-08-06T11:19:39.707Z,33.62
2018-08-06T11:21:17.874Z,32.89
2018-08-06T11:22:56.273Z,32.43
2018-08-06T11:24:36.386Z,32.59
2018-08-06T11:26:15.468Z,32.81
2018-08-06T11:27:52.615Z,32.75
2018-08-06T11:29:30.090Z,32.88
2018-08-06T11:31:06.657Z,32.83
2018-08-06T11:32:50.920Z,32.54
2018-08-06T11:34:28.524Z,32.47
2018-08-06T11:36:05.300Z,32.59
2018-08-06T11:37:48.402Z,32.49
2018-08-06T11:39:25.046Z,32.78
2018-08-06T11:41:03.542Z,33.26
2018-08-06T11:42:44.716Z,33.59
2018-08-06T11:44:21.785Z,34.16
2018-08-06T11:45:59.355Z,34.41
2018-08-06T11:47:38.803Z,34.29
2018-08-06T11:49:19.440Z,34.14
2018-08-06T11:51:02.358Z,34.36
2018-08-06T11:52:41.139Z,34.61
2018-08-06T11:54:18.477Z,34.82
2018-08-06T11:55:59.833Z,34.94
2018-08-06T11:57:41.873Z,34.38
2018-08-06T11:59:19.558Z,34.00
2018-08-06T12:01:00.449Z,33.67
2018-08-06T12:02:42.458Z,33.69
2018-08-06T12:04:18.811Z,33.38
2018-08-06T12:05:57.415Z,32.96
2018-08-06T12:07:35.250Z,33.04
2018-08-06T12:09:13.476Z,33.26
2018-08-06T12:10:54.711Z,33.62
2018-08-06T12:12:32.480Z,33.95
2018-08-06T12:14:33.984Z,34.52
2018-08-06T12:16:13.017Z,34.90
2018-08-06T12:17:59.616Z,34.89
2018-08-06T12:19:38.939Z,34.93
2018-08-06T12:21:16.196Z,35.16
2018-08-06T12:22:54.444Z,34.91
2018-08-06T12:24:32.802Z,34.20
2018-08-06T12:26:10.603Z,33.99
2018-08-06T12:27:50.974Z,33.87
2018-08-06T12:29:32.772Z,34.33
2018-08-06T12:31:10.379Z,34.68
2018-08-06T12:32:53.223Z,34.87
2018-08-06T12:34:29.561Z,34.95
2018-08-06T12:36:06.680Z,35.09
2018-08-06T12:37:44.325Z,34.63
2018-08-06T12:39:22.317Z,34.47
2018-08-06T12:41:21.931Z,34.61
2018-08-06T12:43:05.322Z,34.44
2018-08-06T12:44:44.105Z,34.10
2018-08-06T12:46:22.496Z,33.78
2018-08-06T12:47:59.773Z,33.66
2018-08-06T12:49:37.485Z,33.58
2018-08-06T12:51:14.198Z,33.65
2018-08-06T12:52:51.648Z,33.67
2018-08-06T12:54:30.540Z,33.57
2018-08-06T12:56:09.377Z,33.58
2018-08-06T12:57:47.170Z,33.66
2018-08-06T12:59:30.282Z,33.94
2018-08-06T13:01:13.613Z,34.57
2018-08-06T13:02:59.805Z,34.67
2018-08-06T13:04:39.767Z,34.96
2018-08-06T13:06:21.044Z,35.36
2018-08-06T13:08:11.349Z,35.46
2018-08-06T13:09:51.781Z,35.55
2018-08-06T13:11:30.695Z,35.65
2018-08-06T13:13:08.884Z,35.42
2018-08-06T13:14:47.235Z,35.05
2018-08-06T13:16:28.817Z,35.31
2018-08-06T13:18:08.514Z,35.53
2018-08-06T13:19:48.253Z,35.55
2018-08-06T13:21:26.942Z,35.79
2018-08-06T13:23:04.062Z,35.95
2018-08-06T13:24:47.217Z,36.04
2018-08-06T13:26:30.584Z,35.98
2018-08-06T13:28:07.954Z,36.13
2018-08-06T13:29:44.354Z,35.77
2018-08-06T13:31:24.835Z,35.52
2018-08-06T13:34:42.551Z,36.00
2018-08-06T13:36:19.757Z,36.13
2018-08-06T13:37:56.098Z,35.63
2018-08-06T13:39:36.233Z,35.35
2018-08-06T13:41:15.948Z,35.09
2018-08-06T13:42:55.883Z,34.86
2018-08-06T13:44:33.624Z,34.49
2018-08-06T13:46:13.505Z,34.28
2018-08-06T13:47:54.000Z,34.25
2018-08-06T13:49:31.673Z,34.54
2018-08-06T13:51:10.843Z,34.96
2018-08-06T13:52:51.603Z,35.33
2018-08-06T13:54:36.842Z,35.25
2018-08-06T13:56:13.525Z,35.08
2018-08-06T13:57:50.563Z,34.79
2018-08-06T13:59:27.843Z,34.38
2018-08-06T14:01:05.418Z,34.29
2018-08-06T14:02:44.144Z,34.64
2018-08-06T14:04:20.998Z,34.43
2018-08-06T14:05:57.912Z,33.95
2018-08-06T14:07:34.471Z,33.86
2018-08-06T14:09:12.620Z,34.12
2018-08-06T14:10:49.959Z,34.47
2018-08-06T14:12:26.849Z,34.78
2018-08-06T14:14:05.652Z,34.80
2018-08-06T14:15:44.667Z,34.98
2018-08-06T14:17:26.570Z,35.23
2018-08-06T14:19:09.500Z,35.70
2018-08-06T14:20:46.862Z,35.93
2018-08-06T14:22:26.124Z,36.06
2018-08-06T14:24:02.892Z,36.02
2018-08-06T14:25:40.935Z,36.01
2018-08-06T14:27:17.974Z,35.36
2018-08-06T14:28:55.260Z,34.75
2018-08-06T14:30:34.962Z,34.56
2018-08-06T14:32:11.293Z,34.98
2018-08-06T14:33:49.696Z,35.33
2018-08-06T14:35:30.924Z,35.01
2018-08-06T14:37:11.653Z,34.99
2018-08-06T14:38:49.770Z,34.88
2018-08-06T14:40:29.551Z,34.79
2018-08-06T14:42:06.802Z,34.75
2018-08-06T14:43:43.169Z,34.52
2018-08-06T14:45:19.824Z,34.30
2018-08-06T14:46:57.133Z,34.18
2018-08-06T14:48:36.525Z,34.29
2018-08-06T14:50:16.571Z,34.61
2018-08-06T14:51:53.674Z,34.84
2018-08-06T14:53:29.970Z,35.29
2018-08-06T14:55:07.234Z,35.32
2018-08-06T14:56:44.081Z,35.34
2018-08-06T14:58:20.601Z,35.18
2018-08-06T14:59:57.849Z,34.98
2018-08-06T15:01:34.861Z,35.16
2018-08-06T15:03:12.486Z,34.99
2018-08-06T15:04:49.857Z,34.80
2018-08-06T15:06:27.102Z,34.69
2018-08-06T15:08:03.475Z,34.79
2018-08-06T15:09:40.534Z,34.67
2018-08-06T15:11:20.030Z,34.76
2018-08-06T15:13:01.222Z,34.88
2018-08-06T15:14:38.618Z,35.22
2018-08-06T15:16:14.859Z,35.63
2018-08-06T15:17:53.211Z,36.01
2018-08-06T15:19:35.976Z,36.12
2018-08-06T15:21:17.059Z,36.24
2018-08-06T15:22:55.887Z,36.26
2018-08-06T15:24:35.515Z,36.32
2018-08-06T15:26:14.774Z,36.29
2018-08-06T15:27:53.117Z,36.13
2018-08-06T15:29:30.837Z,36.14
2018-08-06T15:31:09.213Z,36.15
2018-08-06T15:32:52.772Z,36.07
2018-08-06T15:34:30.796Z,35.68
2018-08-06T15:36:07.158Z,35.23
2018-08-06T15:37:45.852Z,35.12
2018-08-06T15:39:22.403Z,34.95
2018-08-06T15:41:03.629Z,34.67
2018-08-06T15:42:40.398Z,34.37
2018-08-06T15:44:17.719Z,34.26
2018-08-06T15:45:55.968Z,34.24
2018-08-06T15:47:35.139Z,34.14
2018-08-06T15:49:16.068Z,34.09
2018-08-06T15:50:58.568Z,34.21
2018-08-06T15:52:38.647Z,34.78
2018-08-06T15:54:20.948Z,35.12
2018-08-06T15:56:00.223Z,35.33
2018-08-06T15:57:37.625Z,35.38
2018-08-06T15:59:29.221Z,35.42
2018-08-06T16:01:22.687Z,34.95
2018-08-06T16:03:04.246Z,35.17
2018-08-06T16:04:46.982Z,35.36
2018-08-06T16:06:24.743Z,35.26
2018-08-06T16:08:01.759Z,35.15
2018-08-06T16:09:41.708Z,35.33
2018-08-06T16:11:21.845Z,35.47
2018-08-06T16:12:59.280Z,35.49
2018-08-06T16:14:36.811Z,35.43
2018-08-06T16:16:14.735Z,35.46
2018-08-06T16:17:51.948Z,35.68
2018-08-06T16:19:32.026Z,36.09
2018-08-06T16:21:09.116Z,36.28
2018-08-06T16:22:45.783Z,36.29
2018-08-06T16:24:22.582Z,36.21
2018-08-06T16:27:32.983Z,36.13
2018-08-06T16:29:09.418Z,36.01
2018-08-06T16:30:49.036Z,35.97
2018-08-06T16:32:27.621Z,36.23
2018-08-06T16:34:05.689Z,36.60
2018-08-06T16:35:42.790Z,36.61
2018-08-06T16:37:19.235Z,36.64
2018-08-06T16:39:01.226Z,36.74
2018-08-06T16:40:38.682Z,36.92
2018-08-06T16:42:15.307Z,36.93
2018-08-06T16:43:52.706Z,37.16
2018-08-06T16:45:33.553Z,37.00
2018-08-06T16:47:10.366Z,36.71
2018-08-06T16:48:47.598Z,36.91
2018-08-06T16:50:32.022Z,37.10
2018-08-06T16:52:09.714Z,37.24
2018-08-06T16:53:47.903Z,37.26
2018-08-06T16:55:27.738Z,37.16
2018-08-06T16:57:04.518Z,36.99
2018-08-06T16:58:41.886Z,36.66
2018-08-06T17:00:21.491Z,36.39
2018-08-06T17:01:57.876Z,36.05
2018-08-06T17:03:35.364Z,35.87
2018-08-06T17:05:14.377Z,36.13
2018-08-06T17:06:52.295Z,36.05
2018-08-06T17:08:35.502Z,35.73
2018-08-06T17:10:20.652Z,35.82
2018-08-06T17:12:04.536Z,35.93
2018-08-06T17:13:44.894Z,35.89
2018-08-06T17:15:23.772Z,36.24
2018-08-06T17:17:01.631Z,36.34
2018-08-06T17:18:38.646Z,35.96
2018-08-06T17:20:24.071Z,35.68
2018-08-06T17:22:02.393Z,35.57
2018-08-06T17:23:44.685Z,35.49
2018-08-06T17:25:23.350Z,35.75
2018-08-06T17:27:00.686Z,35.39
2018-08-06T17:28:38.478Z,35.30
2018-08-06T17:30:17.579Z,35.63
2018-08-06T17:32:15.062Z,35.75
2018-08-06T17:33:54.383Z,35.87
2018-08-06T17:35:35.355Z,35.94
2018-08-06T17:37:14.958Z,35.58
2018-08-06T17:38:51.434Z,35.30
2018-08-06T17:40:29.821Z,35.20
2018-08-06T17:42:07.547Z,35.40
2018-08-06T17:43:43.922Z,35.73
2018-08-06T17:45:22.913Z,35.83
2018-08-06T17:46:59.286Z,35.52
2018-08-06T17:48:40.351Z,35.42
2018-08-06T17:50:23.754Z,35.16
2018-08-06T17:52:08.730Z,35.12
2018-08-06T17:53:49.362Z,34.79
2018-08-06T17:55:29.476Z,34.74
2018-08-06T17:57:09.888Z,34.74
2018-08-06T17:58:47.930Z,34.78
2018-08-06T18:00:28.229Z,35.01
2018-08-06T18:02:10.477Z,35.16
2018-08-06T18:03:48.072Z,35.20
2018-08-06T18:06:05.627Z,34.92
2018-08-06T18:07:44.473Z,34.58
2018-08-06T18:09:27.414Z,34.28
2018-08-06T18:11:05.171Z,34.17
2018-08-06T18:12:43.778Z,34.08
2018-08-06T18:14:21.515Z,34.15
2018-08-06T18:16:01.428Z,34.56
2018-08-06T18:17:41.313Z,34.58
2018-08-06T18:19:18.417Z,34.29
2018-08-06T18:20:57.542Z,34.56
2018-08-06T18:22:35.618Z,34.65
2018-08-06T18:24:15.485Z,34.76
2018-08-06T18:26:25.585Z,34.64
2018-08-06T18:28:01.953Z,34.67
2018-08-06T18:29:40.343Z,34.71
2018-08-06T18:31:17.716Z,34.45
2018-08-06T18:32:54.050Z,34.36
2018-08-06T18:34:30.519Z,34.49
2018-08-06T18:36:08.705Z,34.52
2018-08-06T18:37:45.745Z,34.87
2018-08-06T18:39:23.071Z,34.86
2018-08-06T18:41:00.383Z,34.92
2018-08-06T18:42:37.217Z,34.93
2018-08-06T18:44:14.845Z,34.72
2018-08-06T18:45:54.347Z,34.51
2018-08-06T18:47:35.125Z,34.54
2018-08-06T18:49:15.078Z,34.73
2018-08-06T18:50:58.196Z,34.79
2018-08-06T18:52:40.514Z,34.47
2018-08-06T18:54:21.538Z,34.47
2018-08-06T18:56:04.878Z,34.36
2018-08-06T18:57:44.578Z,34.44
2018-08-06T18:59:22.989Z,34.55
2018-08-06T19:01:02.869Z,34.47
2018-08-06T19:02:41.274Z,34.27
2018-08-06T19:04:20.737Z,34.40
2018-08-06T19:05:59.280Z,34.68
2018-08-06T19:07:37.594Z,34.77
2018-08-06T19:09:20.050Z,34.83
2018-08-06T19:10:57.954Z,34.78
2018-08-06T19:12:40.632Z,34.76
2018-08-06T19:14:22.406Z,34.83
2018-08-06T19:16:00.045Z,34.76
2018-08-06T19:17:44.575Z,34.47
2018-08-06T19:19:22.303Z,34.20
2018-08-06T19:20:59.957Z,34.13
2018-08-06T19:22:38.771Z,34.20
2018-08-06T19:24:25.939Z,34.22
2018-08-06T19:26:03.976Z,34.12
2018-08-06T19:27:42.525Z,33.91
2018-08-06T19:29:20.791Z,33.68
2018-08-06T19:31:03.273Z,33.52
2018-08-06T19:32:41.354Z,33.59
2018-08-06T19:34:22.534Z,33.54
2018-08-06T19:37:50.402Z,33.37
2018-08-06T19:39:28.620Z,33.31
2018-08-06T19:41:06.726Z,33.36
2018-08-06T19:42:48.478Z,33.28
2018-08-06T19:44:25.419Z,33.03
2018-08-06T19:46:08.077Z,32.92
2018-08-06T19:47:45.093Z,32.89
2018-08-06T19:49:30.843Z,32.93
2018-08-06T19:51:09.408Z,32.89
2018-08-06T19:52:52.236Z,33.09
2018-08-06T19:54:29.573Z,33.13
2018-08-06T19:56:11.809Z,33.11
2018-08-06T19:57:50.603Z,33.12
2018-08-06T19:59:27.168Z,33.20
2018-08-06T20:01:08.281Z,33.29
2018-08-06T20:02:45.648Z,33.20
2018-08-06T20:04:23.167Z,33.21
2018-08-06T20:06:01.151Z,33.21
2018-08-06T20:07:37.957Z,32.92
2018-08-06T20:09:16.810Z,32.79
2018-08-06T20:10:55.685Z,32.93
2018-08-06T20:12:34.669Z,32.67
2018-08-06T20:14:13.826Z,32.03
2018-08-06T20:15:52.570Z,32.01
2018-08-06T20:17:30.776Z,32.05
2018-08-06T20:19:09.611Z,31.75
2018-08-06T20:20:46.041Z,31.74
2018-08-06T20:22:26.193Z,31.71
2018-08-06T20:24:05.491Z,31.48
2018-08-06T20:25:45.778Z,31.43
2018-08-06T20:27:23.203Z,31.43
2018-08-06T20:29:02.937Z,31.63
2018-08-06T20:30:42.488Z,31.72
2018-08-06T20:32:21.578Z,32.00
2018-08-06T20:33:58.039Z,32.02
2018-08-06T20:35:34.599Z,32.06
2018-08-06T20:37:18.209Z,32.01
2018-08-06T20:38:55.551Z,31.97
2018-08-06T20:40:34.113Z,31.94
2018-08-06T20:42:11.362Z,31.91
2018-08-06T20:43:49.750Z,31.88
2018-08-06T20:45:31.468Z,31.86
2018-08-06T20:47:09.724Z,31.95
2018-08-06T20:48:46.765Z,31.99
2018-08-06T20:50:28.017Z,32.00
2018-08-06T20:52:07.343Z,32.00
2018-08-06T20:53:46.258Z,31.88
2018-08-06T20:55:31.504Z,31.58
2018-08-06T20:57:10.335Z,31.44
2018-08-06T20:58:47.608Z,31.28
2018-08-06T21:00:25.419Z,31.26
2018-08-06T21:02:06.445Z,31.18
2018-08-06T21:03:44.568Z,31.16
2018-08-06T21:05:24.404Z,31.08
2018-08-06T21:07:04.090Z,31.13
2018-08-06T21:08:42.178Z,31.25
2018-08-06T21:10:39.499Z,31.36
2018-08-06T21:12:16.228Z,31.33
2018-08-06T21:13:55.422Z,31.03
2018-08-06T21:15:32.555Z,30.82
2018-08-06T21:17:10.639Z,30.76
2018-08-06T21:18:52.791Z,30.63
2018-08-06T21:20:31.253Z,30.64
2018-08-06T21:22:11.753Z,30.69